Parlers, South Carolina
Current Conditions -  °F | °C
As of 4:15 PM on Tuesday 21 Oct 2014 (Local Time) from KMNI Reporting Station
Clear Clear  
Wind Chill: 79°   Ceiling: Unl
Heat Index: 79°   Visibility: 10mi
Dew Point: 50°   Wind: 6mph
Humidity: 36%   Direction: 280°W
Pressure: 29.86"   Gusts: NA
Location:  33.4925°N, 80.4841°W
Report Text: KMNI 212015Z AUTO 28005KT 10SM CLR 26/10 A2986 RMK AO2
Loading
Personal Weather Stations






























Interactive Weather Map
Tropical Storm Tracking
New forecast layout! Learn more

10-Day Weather Forecast

Advertisements
Track Severe Weather on mobile